sensor_id;sensor_type;location;lat;lon;timestamp;P1;durP1;ratioP1;P2;durP2;ratioP2
47403;SDS011;33157;51.508;4.288;2022-10-17T00:00:30;8.55;;;4.93;;
47403;SDS011;33157;51.508;4.288;2022-10-17T00:05:30;10.40;;;5.78;;
47403;SDS011;33157;51.508;4.288;2022-10-17T00:10:31;8.25;;;5.90;;
47403;SDS011;33157;51.508;4.288;2022-10-17T00:15:34;6.65;;;5.00;;
47403;SDS011;33157;51.508;4.288;2022-10-17T00:20:35;13.63;;;6.47;;
47403;SDS011;33157;51.508;4.288;2022-10-17T00:25:35;14.52;;;6.30;;
47403;SDS011;33157;51.508;4.288;2022-10-17T00:30:36;11.55;;;5.03;;
47403;SDS011;33157;51.508;4.288;2022-10-17T00:35:37;9.65;;;6.07;;
47403;SDS011;33157;51.508;4.288;2022-10-17T00:40:37;8.32;;;5.22;;
47403;SDS011;33157;51.508;4.288;2022-10-17T00:45:38;8.52;;;5.45;;
47403;SDS011;33157;51.508;4.288;2022-10-17T00:50:41;6.95;;;5.20;;
47403;SDS011;33157;51.508;4.288;2022-10-17T00:55:44;10.05;;;5.10;;
47403;SDS011;33157;51.508;4.288;2022-10-17T01:00:51;9.40;;;5.10;;
47403;SDS011;33157;51.508;4.288;2022-10-17T01:05:51;9.10;;;4.93;;
47403;SDS011;33157;51.508;4.288;2022-10-17T01:16:07;7.55;;;5.03;;
47403;SDS011;33157;51.508;4.288;2022-10-17T01:21:26;9.48;;;5.30;;
47403;SDS011;33157;51.508;4.288;2022-10-17T01:31:54;10.15;;;4.97;;
47403;SDS011;33157;51.508;4.288;2022-10-17T01:42:18;7.35;;;4.50;;
47403;SDS011;33157;51.508;4.288;2022-10-17T01:47:50;10.50;;;4.95;;
47403;SDS011;33157;51.508;4.288;2022-10-17T01:53:02;9.30;;;4.90;;
47403;SDS011;33157;51.508;4.288;2022-10-17T01:58:19;10.38;;;5.22;;
47403;SDS011;33157;51.508;4.288;2022-10-17T02:03:23;11.13;;;5.10;;
47403;SDS011;33157;51.508;4.288;2022-10-17T02:08:26;8.87;;;5.47;;
47403;SDS011;33157;51.508;4.288;2022-10-17T02:13:38;9.82;;;5.22;;
47403;SDS011;33157;51.508;4.288;2022-10-17T02:24:13;12.95;;;5.82;;
47403;SDS011;33157;51.508;4.288;2022-10-17T02:29:21;8.45;;;5.85;;
47403;SDS011;33157;51.508;4.288;2022-10-17T02:34:28;10.10;;;5.72;;
47403;SDS011;33157;51.508;4.288;2022-10-17T02:39:31;10.48;;;5.05;;
47403;SDS011;33157;51.508;4.288;2022-10-17T02:44:32;9.18;;;5.35;;
47403;SDS011;33157;51.508;4.288;2022-10-17T02:49:34;8.07;;;5.95;;
47403;SDS011;33157;51.508;4.288;2022-10-17T02:54:42;8.20;;;5.50;;
47403;SDS011;33157;51.508;4.288;2022-10-17T02:59:47;9.75;;;5.75;;
47403;SDS011;33157;51.508;4.288;2022-10-17T03:04:48;10.68;;;6.05;;
47403;SDS011;33157;51.508;4.288;2022-10-17T03:09:49;10.70;;;6.22;;
47403;SDS011;33157;51.508;4.288;2022-10-17T03:14:50;11.90;;;5.88;;
47403;SDS011;33157;51.508;4.288;2022-10-17T03:19:50;9.15;;;5.40;;
47403;SDS011;33157;51.508;4.288;2022-10-17T03:24:51;11.40;;;6.32;;
47403;SDS011;33157;51.508;4.288;2022-10-17T03:29:51;13.73;;;6.22;;
47403;SDS011;33157;51.508;4.288;2022-10-17T03:34:52;9.00;;;5.60;;
47403;SDS011;33157;51.508;4.288;2022-10-17T03:39:52;8.38;;;5.68;;
47403;SDS011;33157;51.508;4.288;2022-10-17T03:44:53;10.73;;;6.43;;
47403;SDS011;33157;51.508;4.288;2022-10-17T03:49:53;8.95;;;6.03;;
47403;SDS011;33157;51.508;4.288;2022-10-17T03:54:54;9.85;;;5.95;;
47403;SDS011;33157;51.508;4.288;2022-10-17T03:59:54;12.50;;;6.45;;
47403;SDS011;33157;51.508;4.288;2022-10-17T04:04:55;12.27;;;7.43;;
47403;SDS011;33157;51.508;4.288;2022-10-17T04:09:56;7.38;;;5.47;;
47403;SDS011;33157;51.508;4.288;2022-10-17T04:14:56;14.00;;;5.95;;
47403;SDS011;33157;51.508;4.288;2022-10-17T04:19:57;11.00;;;6.05;;
47403;SDS011;33157;51.508;4.288;2022-10-17T04:24:57;8.90;;;5.03;;
47403;SDS011;33157;51.508;4.288;2022-10-17T04:29:58;8.52;;;4.95;;
47403;SDS011;33157;51.508;4.288;2022-10-17T04:34:58;12.02;;;5.68;;
47403;SDS011;33157;51.508;4.288;2022-10-17T04:39:59;8.52;;;5.13;;
47403;SDS011;33157;51.508;4.288;2022-10-17T04:44:59;8.75;;;5.25;;
47403;SDS011;33157;51.508;4.288;2022-10-17T04:50:00;14.18;;;5.80;;
47403;SDS011;33157;51.508;4.288;2022-10-17T04:55:01;6.50;;;4.88;;
47403;SDS011;33157;51.508;4.288;2022-10-17T05:00:02;8.38;;;5.63;;
47403;SDS011;33157;51.508;4.288;2022-10-17T05:05:03;10.40;;;5.40;;
47403;SDS011;33157;51.508;4.288;2022-10-17T05:10:04;9.18;;;5.45;;
47403;SDS011;33157;51.508;4.288;2022-10-17T05:15:05;9.05;;;5.32;;
47403;SDS011;33157;51.508;4.288;2022-10-17T05:20:06;12.10;;;5.15;;
47403;SDS011;33157;51.508;4.288;2022-10-17T05:25:08;10.37;;;5.63;;
47403;SDS011;33157;51.508;4.288;2022-10-17T05:30:09;14.25;;;5.15;;
47403;SDS011;33157;51.508;4.288;2022-10-17T05:35:10;11.70;;;5.40;;
47403;SDS011;33157;51.508;4.288;2022-10-17T05:40:10;7.45;;;4.60;;
47403;SDS011;33157;51.508;4.288;2022-10-17T05:45:11;8.55;;;4.85;;
47403;SDS011;33157;51.508;4.288;2022-10-17T05:50:11;8.40;;;4.78;;
47403;SDS011;33157;51.508;4.288;2022-10-17T05:55:12;10.52;;;5.07;;
47403;SDS011;33157;51.508;4.288;2022-10-17T06:00:13;8.27;;;4.60;;
47403;SDS011;33157;51.508;4.288;2022-10-17T06:05:13;8.77;;;4.90;;
47403;SDS011;33157;51.508;4.288;2022-10-17T06:10:14;9.60;;;5.53;;
47403;SDS011;33157;51.508;4.288;2022-10-17T06:15:16;9.10;;;4.63;;
47403;SDS011;33157;51.508;4.288;2022-10-17T06:20:17;8.00;;;4.38;;
47403;SDS011;33157;51.508;4.288;2022-10-17T06:25:17;9.70;;;5.28;;
47403;SDS011;33157;51.508;4.288;2022-10-17T06:30:18;7.57;;;4.72;;
47403;SDS011;33157;51.508;4.288;2022-10-17T06:35:18;8.77;;;4.82;;
47403;SDS011;33157;51.508;4.288;2022-10-17T06:40:19;10.23;;;4.65;;
47403;SDS011;33157;51.508;4.288;2022-10-17T06:45:20;13.20;;;4.53;;
47403;SDS011;33157;51.508;4.288;2022-10-17T06:50:21;12.25;;;4.13;;
47403;SDS011;33157;51.508;4.288;2022-10-17T06:55:21;9.82;;;5.07;;
47403;SDS011;33157;51.508;4.288;2022-10-17T07:00:22;9.25;;;4.97;;
47403;SDS011;33157;51.508;4.288;2022-10-17T07:05:22;11.77;;;5.07;;
47403;SDS011;33157;51.508;4.288;2022-10-17T07:10:29;16.02;;;6.60;;
47403;SDS011;33157;51.508;4.288;2022-10-17T07:15:29;19.77;;;6.78;;
47403;SDS011;33157;51.508;4.288;2022-10-17T07:20:31;12.98;;;7.13;;
47403;SDS011;33157;51.508;4.288;2022-10-17T07:25:32;17.67;;;7.03;;
47403;SDS011;33157;51.508;4.288;2022-10-17T07:30:32;15.10;;;6.85;;
47403;SDS011;33157;51.508;4.288;2022-10-17T07:35:33;11.68;;;6.53;;
47403;SDS011;33157;51.508;4.288;2022-10-17T07:40:33;13.88;;;7.00;;
47403;SDS011;33157;51.508;4.288;2022-10-17T07:45:34;15.88;;;7.70;;
47403;SDS011;33157;51.508;4.288;2022-10-17T07:50:34;17.63;;;8.23;;
47403;SDS011;33157;51.508;4.288;2022-10-17T07:55:36;14.25;;;8.07;;
47403;SDS011;33157;51.508;4.288;2022-10-17T08:00:37;15.13;;;8.73;;
47403;SDS011;33157;51.508;4.288;2022-10-17T08:05:37;19.90;;;9.80;;
47403;SDS011;33157;51.508;4.288;2022-10-17T08:10:38;16.33;;;9.13;;
47403;SDS011;33157;51.508;4.288;2022-10-17T08:15:39;15.68;;;8.02;;
47403;SDS011;33157;51.508;4.288;2022-10-17T08:20:40;25.23;;;16.10;;
47403;SDS011;33157;51.508;4.288;2022-10-17T08:25:41;19.85;;;11.43;;
47403;SDS011;33157;51.508;4.288;2022-10-17T08:30:41;15.05;;;8.68;;
47403;SDS011;33157;51.508;4.288;2022-10-17T08:35:42;16.90;;;10.80;;
47403;SDS011;33157;51.508;4.288;2022-10-17T08:40:42;17.10;;;9.25;;
47403;SDS011;33157;51.508;4.288;2022-10-17T08:55:53;19.73;;;14.10;;
47403;SDS011;33157;51.508;4.288;2022-10-17T09:06:11;15.65;;;9.48;;
47403;SDS011;33157;51.508;4.288;2022-10-17T09:21:43;11.05;;;6.07;;
47403;SDS011;33157;51.508;4.288;2022-10-17T09:26:46;11.27;;;5.90;;
47403;SDS011;33157;51.508;4.288;2022-10-17T09:31:53;8.45;;;4.88;;
47403;SDS011;33157;51.508;4.288;2022-10-17T09:36:58;8.13;;;5.35;;
47403;SDS011;33157;51.508;4.288;2022-10-17T09:41:59;10.83;;;5.33;;
47403;SDS011;33157;51.508;4.288;2022-10-17T09:52:02;8.60;;;4.63;;
47403;SDS011;33157;51.508;4.288;2022-10-17T09:57:05;12.40;;;5.63;;
47403;SDS011;33157;51.508;4.288;2022-10-17T10:07:09;11.40;;;6.30;;
47403;SDS011;33157;51.508;4.288;2022-10-17T10:12:25;11.50;;;5.18;;
47403;SDS011;33157;51.508;4.288;2022-10-17T10:17:34;8.07;;;5.38;;
47403;SDS011;33157;51.508;4.288;2022-10-17T10:22:35;11.20;;;7.47;;
47403;SDS011;33157;51.508;4.288;2022-10-17T10:27:36;9.57;;;6.72;;
47403;SDS011;33157;51.508;4.288;2022-10-17T10:32:39;9.50;;;6.65;;
47403;SDS011;33157;51.508;4.288;2022-10-17T10:37:41;12.18;;;6.07;;
47403;SDS011;33157;51.508;4.288;2022-10-17T10:42:45;11.38;;;5.65;;
47403;SDS011;33157;51.508;4.288;2022-10-17T10:47:51;8.88;;;5.80;;
47403;SDS011;33157;51.508;4.288;2022-10-17T11:04:00;8.57;;;4.82;;
47403;SDS011;33157;51.508;4.288;2022-10-17T11:15:30;11.00;;;5.65;;
47403;SDS011;33157;51.508;4.288;2022-10-17T11:20:10;10.15;;;5.07;;
47403;SDS011;33157;51.508;4.288;2022-10-17T11:25:18;10.18;;;5.55;;
47403;SDS011;33157;51.508;4.288;2022-10-17T11:30:22;8.57;;;5.78;;
47403;SDS011;33157;51.508;4.288;2022-10-17T11:40:44;8.90;;;5.80;;
47403;SDS011;33157;51.508;4.288;2022-10-17T11:45:53;13.00;;;9.68;;
47403;SDS011;33157;51.508;4.288;2022-10-17T11:51:11;11.35;;;6.50;;
47403;SDS011;33157;51.508;4.288;2022-10-17T11:56:13;11.45;;;6.82;;
47403;SDS011;33157;51.508;4.288;2022-10-17T12:11:45;10.88;;;6.93;;
47403;SDS011;33157;51.508;4.288;2022-10-17T12:16:52;8.73;;;7.32;;
47403;SDS011;33157;51.508;4.288;2022-10-17T12:22:16;10.93;;;7.88;;
47403;SDS011;33157;51.508;4.288;2022-10-17T12:37:59;12.00;;;8.43;;
47403;SDS011;33157;51.508;4.288;2022-10-17T12:43:02;11.15;;;7.45;;
47403;SDS011;33157;51.508;4.288;2022-10-17T12:58:58;21.05;;;8.50;;
47403;SDS011;33157;51.508;4.288;2022-10-17T13:03:59;12.63;;;6.40;;
47403;SDS011;33157;51.508;4.288;2022-10-17T13:14:26;9.02;;;6.82;;
47403;SDS011;33157;51.508;4.288;2022-10-17T13:19:29;8.85;;;6.28;;
47403;SDS011;33157;51.508;4.288;2022-10-17T13:24:32;12.00;;;5.85;;
47403;SDS011;33157;51.508;4.288;2022-10-17T13:29:35;8.90;;;6.22;;
47403;SDS011;33157;51.508;4.288;2022-10-17T13:34:43;8.18;;;6.80;;
47403;SDS011;33157;51.508;4.288;2022-10-17T13:39:44;11.75;;;5.97;;
47403;SDS011;33157;51.508;4.288;2022-10-17T13:44:46;12.32;;;7.90;;
47403;SDS011;33157;51.508;4.288;2022-10-17T13:49:46;12.60;;;7.88;;
47403;SDS011;33157;51.508;4.288;2022-10-17T13:54:48;13.05;;;10.13;;
47403;SDS011;33157;51.508;4.288;2022-10-17T13:59:56;12.52;;;7.20;;
47403;SDS011;33157;51.508;4.288;2022-10-17T14:10:17;25.25;;;9.23;;
47403;SDS011;33157;51.508;4.288;2022-10-17T14:15:18;9.85;;;7.50;;
47403;SDS011;33157;51.508;4.288;2022-10-17T14:20:21;13.77;;;8.57;;
47403;SDS011;33157;51.508;4.288;2022-10-17T14:25:30;13.50;;;7.57;;
47403;SDS011;33157;51.508;4.288;2022-10-17T14:30:38;10.15;;;7.32;;
47403;SDS011;33157;51.508;4.288;2022-10-17T14:35:53;13.00;;;6.38;;
47403;SDS011;33157;51.508;4.288;2022-10-17T14:46:01;12.32;;;5.93;;
47403;SDS011;33157;51.508;4.288;2022-10-17T14:51:12;8.95;;;5.80;;
47403;SDS011;33157;51.508;4.288;2022-10-17T14:56:22;10.05;;;5.60;;
47403;SDS011;33157;51.508;4.288;2022-10-17T15:01:24;9.98;;;5.50;;
47403;SDS011;33157;51.508;4.288;2022-10-17T15:06:30;10.00;;;5.50;;
47403;SDS011;33157;51.508;4.288;2022-10-17T15:11:32;13.45;;;4.93;;
47403;SDS011;33157;51.508;4.288;2022-10-17T15:16:33;9.60;;;4.47;;
47403;SDS011;33157;51.508;4.288;2022-10-17T15:21:34;9.57;;;4.88;;
47403;SDS011;33157;51.508;4.288;2022-10-17T15:26:35;10.63;;;4.80;;
47403;SDS011;33157;51.508;4.288;2022-10-17T15:31:36;6.85;;;4.32;;
47403;SDS011;33157;51.508;4.288;2022-10-17T15:36:40;11.20;;;5.55;;
47403;SDS011;33157;51.508;4.288;2022-10-17T15:41:41;8.23;;;5.28;;
47403;SDS011;33157;51.508;4.288;2022-10-17T15:46:42;8.88;;;5.22;;
47403;SDS011;33157;51.508;4.288;2022-10-17T15:51:42;10.70;;;6.57;;
47403;SDS011;33157;51.508;4.288;2022-10-17T15:56:45;14.23;;;8.10;;
47403;SDS011;33157;51.508;4.288;2022-10-17T16:01:49;14.93;;;6.50;;
47403;SDS011;33157;51.508;4.288;2022-10-17T16:06:49;15.30;;;8.30;;
47403;SDS011;33157;51.508;4.288;2022-10-17T16:11:50;12.35;;;6.60;;
47403;SDS011;33157;51.508;4.288;2022-10-17T16:16:51;13.85;;;8.80;;
47403;SDS011;33157;51.508;4.288;2022-10-17T16:21:51;16.13;;;8.82;;
47403;SDS011;33157;51.508;4.288;2022-10-17T16:26:52;14.98;;;8.18;;
47403;SDS011;33157;51.508;4.288;2022-10-17T16:31:53;14.48;;;8.80;;
47403;SDS011;33157;51.508;4.288;2022-10-17T16:36:53;25.95;;;20.02;;
47403;SDS011;33157;51.508;4.288;2022-10-17T16:41:54;22.50;;;14.45;;
47403;SDS011;33157;51.508;4.288;2022-10-17T16:46:54;9.77;;;5.72;;
47403;SDS011;33157;51.508;4.288;2022-10-17T16:51:55;11.48;;;6.13;;
47403;SDS011;33157;51.508;4.288;2022-10-17T16:56:56;9.10;;;5.28;;
47403;SDS011;33157;51.508;4.288;2022-10-17T17:01:56;13.85;;;8.13;;
47403;SDS011;33157;51.508;4.288;2022-10-17T17:06:57;16.65;;;13.70;;
47403;SDS011;33157;51.508;4.288;2022-10-17T17:11:58;26.63;;;23.38;;
47403;SDS011;33157;51.508;4.288;2022-10-17T17:16:58;11.07;;;5.50;;
47403;SDS011;33157;51.508;4.288;2022-10-17T17:21:59;9.15;;;5.60;;
47403;SDS011;33157;51.508;4.288;2022-10-17T17:26:59;8.93;;;5.30;;
47403;SDS011;33157;51.508;4.288;2022-10-17T17:32:00;12.80;;;5.57;;
47403;SDS011;33157;51.508;4.288;2022-10-17T17:37:01;10.57;;;4.57;;
47403;SDS011;33157;51.508;4.288;2022-10-17T17:42:01;9.45;;;4.47;;
47403;SDS011;33157;51.508;4.288;2022-10-17T17:47:02;8.63;;;4.50;;
47403;SDS011;33157;51.508;4.288;2022-10-17T17:52:02;11.40;;;4.88;;
47403;SDS011;33157;51.508;4.288;2022-10-17T17:57:03;9.45;;;5.10;;
47403;SDS011;33157;51.508;4.288;2022-10-17T18:02:04;8.52;;;5.03;;
47403;SDS011;33157;51.508;4.288;2022-10-17T18:07:05;10.83;;;5.80;;
47403;SDS011;33157;51.508;4.288;2022-10-17T18:12:06;11.63;;;5.65;;
47403;SDS011;33157;51.508;4.288;2022-10-17T18:17:07;10.32;;;5.53;;
47403;SDS011;33157;51.508;4.288;2022-10-17T18:22:07;9.48;;;5.88;;
47403;SDS011;33157;51.508;4.288;2022-10-17T18:27:09;9.23;;;5.80;;
47403;SDS011;33157;51.508;4.288;2022-10-17T18:32:12;10.95;;;6.10;;
47403;SDS011;33157;51.508;4.288;2022-10-17T18:37:13;7.85;;;5.95;;
47403;SDS011;33157;51.508;4.288;2022-10-17T18:42:13;14.02;;;6.68;;
47403;SDS011;33157;51.508;4.288;2022-10-17T18:47:14;14.02;;;7.43;;
47403;SDS011;33157;51.508;4.288;2022-10-17T18:52:15;16.02;;;9.15;;
47403;SDS011;33157;51.508;4.288;2022-10-17T18:57:15;10.38;;;7.78;;
47403;SDS011;33157;51.508;4.288;2022-10-17T19:02:16;11.57;;;7.55;;
47403;SDS011;33157;51.508;4.288;2022-10-17T19:07:16;15.32;;;8.10;;
47403;SDS011;33157;51.508;4.288;2022-10-17T19:12:19;11.48;;;8.10;;
47403;SDS011;33157;51.508;4.288;2022-10-17T19:17:20;16.08;;;8.68;;
47403;SDS011;33157;51.508;4.288;2022-10-17T19:22:20;11.95;;;8.77;;
47403;SDS011;33157;51.508;4.288;2022-10-17T19:27:21;13.45;;;8.38;;
47403;SDS011;33157;51.508;4.288;2022-10-17T19:32:21;13.25;;;8.43;;
47403;SDS011;33157;51.508;4.288;2022-10-17T19:37:22;14.50;;;8.52;;
47403;SDS011;33157;51.508;4.288;2022-10-17T19:42:22;16.85;;;8.45;;
47403;SDS011;33157;51.508;4.288;2022-10-17T19:47:23;12.23;;;8.43;;
47403;SDS011;33157;51.508;4.288;2022-10-17T19:52:24;14.55;;;9.63;;
47403;SDS011;33157;51.508;4.288;2022-10-17T19:57:25;12.50;;;9.45;;
47403;SDS011;33157;51.508;4.288;2022-10-17T20:02:25;15.38;;;9.98;;
47403;SDS011;33157;51.508;4.288;2022-10-17T20:07:26;17.30;;;9.85;;
47403;SDS011;33157;51.508;4.288;2022-10-17T20:12:26;17.75;;;10.02;;
47403;SDS011;33157;51.508;4.288;2022-10-17T20:17:27;12.05;;;9.18;;
47403;SDS011;33157;51.508;4.288;2022-10-17T20:22:28;17.70;;;10.68;;
47403;SDS011;33157;51.508;4.288;2022-10-17T20:27:29;16.83;;;10.02;;
47403;SDS011;33157;51.508;4.288;2022-10-17T20:32:30;14.73;;;11.18;;
47403;SDS011;33157;51.508;4.288;2022-10-17T20:37:34;21.42;;;11.65;;
47403;SDS011;33157;51.508;4.288;2022-10-17T20:42:35;19.00;;;11.77;;
47403;SDS011;33157;51.508;4.288;2022-10-17T20:47:36;16.48;;;11.60;;
47403;SDS011;33157;51.508;4.288;2022-10-17T20:52:36;19.25;;;9.98;;
47403;SDS011;33157;51.508;4.288;2022-10-17T20:57:37;18.23;;;12.02;;
47403;SDS011;33157;51.508;4.288;2022-10-17T21:02:38;16.02;;;11.65;;
47403;SDS011;33157;51.508;4.288;2022-10-17T21:07:38;18.10;;;11.13;;
47403;SDS011;33157;51.508;4.288;2022-10-17T21:12:38;14.30;;;11.35;;
47403;SDS011;33157;51.508;4.288;2022-10-17T21:17:39;17.90;;;11.93;;
47403;SDS011;33157;51.508;4.288;2022-10-17T21:22:40;21.83;;;13.30;;
47403;SDS011;33157;51.508;4.288;2022-10-17T21:27:40;18.77;;;11.85;;
47403;SDS011;33157;51.508;4.288;2022-10-17T21:32:41;18.63;;;12.40;;
47403;SDS011;33157;51.508;4.288;2022-10-17T21:37:41;18.48;;;12.75;;
47403;SDS011;33157;51.508;4.288;2022-10-17T21:42:42;16.33;;;12.43;;
47403;SDS011;33157;51.508;4.288;2022-10-17T21:47:42;16.75;;;11.93;;
47403;SDS011;33157;51.508;4.288;2022-10-17T21:52:43;16.33;;;12.07;;
47403;SDS011;33157;51.508;4.288;2022-10-17T21:57:43;18.90;;;11.13;;
47403;SDS011;33157;51.508;4.288;2022-10-17T22:02:44;18.17;;;10.30;;
47403;SDS011;33157;51.508;4.288;2022-10-17T22:07:44;16.50;;;10.70;;
47403;SDS011;33157;51.508;4.288;2022-10-17T22:12:45;17.65;;;11.05;;
47403;SDS011;33157;51.508;4.288;2022-10-17T22:17:46;13.10;;;9.80;;
47403;SDS011;33157;51.508;4.288;2022-10-17T22:22:46;15.70;;;10.43;;
47403;SDS011;33157;51.508;4.288;2022-10-17T22:27:47;14.10;;;9.20;;
47403;SDS011;33157;51.508;4.288;2022-10-17T22:32:47;13.43;;;8.73;;
47403;SDS011;33157;51.508;4.288;2022-10-17T22:37:50;16.33;;;9.75;;
47403;SDS011;33157;51.508;4.288;2022-10-17T22:42:51;15.25;;;10.23;;
47403;SDS011;33157;51.508;4.288;2022-10-17T22:47:51;14.25;;;9.25;;
47403;SDS011;33157;51.508;4.288;2022-10-17T22:52:53;14.07;;;9.13;;
47403;SDS011;33157;51.508;4.288;2022-10-17T22:57:53;17.30;;;10.05;;
47403;SDS011;33157;51.508;4.288;2022-10-17T23:02:54;15.18;;;9.57;;
47403;SDS011;33157;51.508;4.288;2022-10-17T23:07:54;13.02;;;9.95;;
47403;SDS011;33157;51.508;4.288;2022-10-17T23:12:56;14.97;;;11.20;;
47403;SDS011;33157;51.508;4.288;2022-10-17T23:17:57;20.02;;;10.90;;
47403;SDS011;33157;51.508;4.288;2022-10-17T23:22:58;17.77;;;11.07;;
47403;SDS011;33157;51.508;4.288;2022-10-17T23:27:58;17.10;;;11.48;;
47403;SDS011;33157;51.508;4.288;2022-10-17T23:32:59;17.83;;;10.70;;
47403;SDS011;33157;51.508;4.288;2022-10-17T23:38:00;20.13;;;10.73;;
47403;SDS011;33157;51.508;4.288;2022-10-17T23:43:00;20.52;;;11.00;;
47403;SDS011;33157;51.508;4.288;2022-10-17T23:48:01;16.52;;;10.93;;
47403;SDS011;33157;51.508;4.288;2022-10-17T23:53:02;14.77;;;11.25;;
47403;SDS011;33157;51.508;4.288;2022-10-17T23:58:03;16.83;;;11.27;;
